Time;durP1;ratioP1;P1;durP2;ratioP2;P2;SDS_P1;SDS_P2;PMS_P1;PMS_P2;Temp;Humidity;BMP_temperature;BMP_pressure;BME280_temperature;BME280_humidity;BME280_pressure;Samples;Min_cycle;Max_cycle;Signal;HPM_P1;HPM_P2
2020/12/07 00:00:23;;;;;;;17.55;10.85;;;;;;;0.73;100.00;94187.56;1035578;28;20075;-74
2020/12/07 00:00:55;;;;;;;16.55;10.23;;;;;;;0.66;100.00;94181.38;1031087;28;20015;-73
2020/12/07 00:01:25;;;;;;;19.63;10.93;;;;;;;0.78;100.00;94189.69;1043371;28;20014;-74
2020/12/07 00:01:56;;;;;;;18.13;10.95;;;;;;;0.77;100.00;94185.47;1038709;28;20010;-74
2020/12/07 00:02:27;;;;;;;18.55;10.30;;;;;;;0.77;100.00;94188.06;1037312;28;20485;-75
2020/12/07 00:02:58;;;;;;;16.17;10.25;;;;;;;0.72;100.00;94174.69;1028864;28;20023;-74
2020/12/07 00:03:29;;;;;;;17.90;11.23;;;;;;;0.80;100.00;94177.31;1037248;28;20050;-75
2020/12/07 00:04:00;;;;;;;15.85;10.23;;;;;;;0.82;100.00;94183.19;1033233;28;20084;-74
2020/12/07 00:04:30;;;;;;;16.88;10.30;;;;;;;0.83;100.00;94192.66;1029207;28;20023;-75
2020/12/07 00:05:01;;;;;;;15.90;9.68;;;;;;;0.82;100.00;94192.81;1033269;28;20454;-74
2020/12/07 00:05:32;;;;;;;19.40;9.95;;;;;;;0.78;100.00;94184.47;1037035;28;20025;-74
2020/12/07 00:06:03;;;;;;;14.95;9.40;;;;;;;0.72;100.00;94178.09;1037161;28;20466;-74
2020/12/07 00:06:33;;;;;;;17.30;9.65;;;;;;;0.74;100.00;94180.56;1037357;28;20018;-74
2020/12/07 00:07:04;;;;;;;18.77;10.65;;;;;;;0.73;100.00;94165.84;1032874;28;20094;-74
2020/12/07 00:07:35;;;;;;;16.10;9.20;;;;;;;0.70;100.00;94179.25;1037298;28;20013;-75
2020/12/07 00:08:07;;;;;;;19.05;10.23;;;;;;;0.68;100.00;94175.94;1037306;28;20105;-74
2020/12/07 00:08:38;;;;;;;17.55;10.95;;;;;;;0.68;100.00;94170.72;1037119;28;20516;-74
2020/12/07 00:09:09;;;;;;;15.07;9.43;;;;;;;0.60;100.00;94140.19;1041116;28;20032;-74
2020/12/07 00:09:40;;;;;;;20.00;11.77;;;;;;;0.72;100.00;94154.59;1037616;28;20439;-75
2020/12/07 00:10:10;;;;;;;16.33;10.10;;;;;;;0.68;100.00;94168.13;1037239;28;20072;-75
2020/12/07 00:10:41;;;;;;;17.52;10.23;;;;;;;0.67;100.00;94167.31;1045147;28;20052;-74
2020/12/07 00:11:13;;;;;;;18.92;10.48;;;;;;;0.67;100.00;94161.28;1036785;28;20029;-74
2020/12/07 00:11:48;;;;;;;18.33;11.13;;;;;;;0.64;100.00;94159.78;1029152;28;20507;-74
2020/12/07 00:12:23;;;;;;;20.02;10.95;;;;;;;0.66;100.00;94155.25;1033298;28;20073;-75
2020/12/07 00:12:54;;;;;;;16.50;10.50;;;;;;;0.71;100.00;94168.59;1037037;28;20401;-74
2020/12/07 00:13:26;;;;;;;16.38;10.10;;;;;;;0.63;100.00;94157.31;1029216;28;20023;-75
2020/12/07 00:13:57;;;;;;;15.73;9.55;;;;;;;0.66;100.00;94160.47;1037296;28;20022;-75
2020/12/07 00:14:31;;;;;;;15.68;10.00;;;;;;;0.68;100.00;94161.13;1041100;28;20112;-75
2020/12/07 00:15:05;;;;;;;17.90;10.27;;;;;;;0.65;100.00;94158.81;1033336;28;20022;-74
2020/12/07 00:15:36;;;;;;;19.92;10.98;;;;;;;0.70;100.00;94155.75;1033415;28;20022;-74
2020/12/07 00:16:08;;;;;;;21.83;11.00;;;;;;;0.61;100.00;94154.91;1032934;28;20040;-74
2020/12/07 00:16:43;;;;;;;19.85;11.70;;;;;;;0.58;100.00;94157.00;1036669;28;20556;-74
2020/12/07 00:17:13;;;;;;;19.48;11.00;;;;;;;0.58;100.00;94141.34;1029007;28;20063;-74
2020/12/07 00:17:44;;;;;;;19.55;10.82;;;;;;;0.56;100.00;94150.16;1025142;29;20118;-74
2020/12/07 00:18:15;;;;;;;18.25;10.57;;;;;;;0.58;100.00;94147.38;1029092;28;20027;-74
2020/12/07 00:18:46;;;;;;;24.63;10.98;;;;;;;0.54;100.00;94139.03;1032597;28;20018;-74
2020/12/07 00:19:17;;;;;;;21.00;11.10;;;;;;;0.61;100.00;94146.22;1025019;28;20029;-74
2020/12/07 00:19:48;;;;;;;21.05;10.88;;;;;;;0.59;100.00;94133.31;1033025;28;20029;-74
2020/12/07 00:20:19;;;;;;;18.48;11.27;;;;;;;0.58;100.00;94141.34;1033135;28;20026;-74
2020/12/07 00:20:50;;;;;;;17.90;10.52;;;;;;;0.67;100.00;94150.81;1032931;28;20018;-74
2020/12/07 00:21:21;;;;;;;19.15;10.68;;;;;;;0.60;100.00;94142.00;1041284;28;20028;-74
2020/12/07 00:21:52;;;;;;;18.92;11.38;;;;;;;0.65;100.00;94142.34;1037093;28;20121;-74
2020/12/07 00:22:24;;;;;;;19.20;11.18;;;;;;;0.62;100.00;94145.25;1033061;28;20022;-75
2020/12/07 00:22:56;;;;;;;19.27;11.15;;;;;;;0.65;100.00;94148.38;1028791;28;20019;-74
2020/12/07 00:23:27;;;;;;;19.27;10.38;;;;;;;0.57;100.00;94137.91;1033281;28;20055;-74
2020/12/07 00:23:58;;;;;;;17.67;10.90;;;;;;;0.58;100.00;94151.78;1037165;28;20450;-74
2020/12/07 00:24:29;;;;;;;18.83;10.68;;;;;;;0.58;100.00;94151.78;1033177;28;20055;-75
2020/12/07 00:25:00;;;;;;;18.17;10.98;;;;;;;0.58;100.00;94141.34;1036936;28;20022;-74
2020/12/07 00:25:31;;;;;;;21.95;11.32;;;;;;;0.59;100.00;94140.34;1041175;28;20041;-74
2020/12/07 00:26:02;;;;;;;19.73;11.30;;;;;;;0.62;100.00;94146.06;1033090;28;20541;-75
2020/12/07 00:26:33;;;;;;;19.35;11.38;;;;;;;0.64;100.00;94140.69;1032824;28;20025;-74
2020/12/07 00:27:04;;;;;;;19.92;10.77;;;;;;;0.62;100.00;94146.06;1032814;28;20522;-74
2020/12/07 00:27:38;;;;;;;19.55;11.18;;;;;;;0.65;100.00;94144.94;1040998;28;20048;-74
2020/12/07 00:28:09;;;;;;;20.25;11.55;;;;;;;0.65;100.00;94143.16;1037091;28;20025;-75
2020/12/07 00:28:40;;;;;;;18.80;11.05;;;;;;;0.67;100.00;94146.41;1041255;28;20108;-74
2020/12/07 00:29:11;;;;;;;19.42;10.88;;;;;;;0.65;100.00;94137.91;1044917;28;20018;-74
2020/12/07 00:29:41;;;;;;;19.27;11.52;;;;;;;0.67;100.00;94141.19;1032973;28;20026;-75
2020/12/07 00:30:12;;;;;;;19.80;11.35;;;;;;;0.70;100.00;94140.06;1041276;28;20018;-75
2020/12/07 00:30:43;;;;;;;19.83;11.73;;;;;;;0.59;100.00;94111.63;1028761;28;20038;-74
2020/12/07 00:31:14;;;;;;;20.90;11.50;;;;;;;0.71;100.00;94144.28;1041096;28;20029;-74
2020/12/07 00:31:45;;;;;;;22.02;11.82;;;;;;;0.65;100.00;94130.09;1028776;28;20050;-75
2020/12/07 00:32:18;;;;;;;20.45;11.23;;;;;;;0.65;100.00;94137.91;1033385;28;20022;-75
2020/12/07 00:32:49;;;;;;;20.83;11.38;;;;;;;0.61;100.00;94134.00;1032741;28;20479;-74
2020/12/07 00:33:19;;;;;;;20.95;11.15;;;;;;;0.63;100.00;94131.22;1028549;28;20019;-74
2020/12/07 00:33:50;;;;;;;19.00;11.13;;;;;;;0.67;100.00;94135.97;1028967;28;20118;-74
2020/12/07 00:34:21;;;;;;;20.70;11.18;;;;;;;0.65;100.00;94140.53;1040887;28;20049;-75
2020/12/07 00:34:52;;;;;;;21.92;11.73;;;;;;;0.66;100.00;94138.72;1024582;29;20039;-74
2020/12/07 00:35:23;;;;;;;17.75;10.70;;;;;;;0.62;100.00;94137.44;1032889;28;20018;-75
2020/12/07 00:35:54;;;;;;;20.13;11.10;;;;;;;0.62;100.00;94134.81;1032819;28;20022;-75
2020/12/07 00:36:25;;;;;;;22.98;12.68;;;;;;;0.66;100.00;94133.50;1025045;28;20038;-75
2020/12/07 00:36:56;;;;;;;21.30;11.98;;;;;;;0.67;100.00;94135.16;1032750;28;20082;-74
2020/12/07 00:37:27;;;;;;;19.05;10.80;;;;;;;0.68;100.00;94132.38;1032863;28;20033;-74
2020/12/07 00:37:58;;;;;;;21.25;12.02;;;;;;;0.66;100.00;94133.50;1032703;28;20037;-75
2020/12/07 00:38:29;;;;;;;20.80;12.00;;;;;;;0.67;100.00;94129.94;1032719;28;20076;-75
2020/12/07 00:38:59;;;;;;;21.45;12.30;;;;;;;0.65;100.00;94135.31;1032658;28;20034;-74
2020/12/07 00:39:30;;;;;;;19.83;11.82;;;;;;;0.60;100.00;94126.31;1040973;28;20040;-75
2020/12/07 00:40:01;;;;;;;21.55;11.80;;;;;;;0.59;100.00;94135.13;1028912;28;20022;-75
2020/12/07 00:40:32;;;;;;;21.00;11.55;;;;;;;0.52;100.00;94125.34;1040875;28;20570;-74
2020/12/07 00:41:02;;;;;;;23.88;12.73;;;;;;;0.50;100.00;94119.44;1028576;28;20019;-74
2020/12/07 00:41:33;;;;;;;22.55;12.35;;;;;;;0.62;100.00;94121.75;1032851;28;20058;-75
2020/12/07 00:42:04;;;;;;;20.77;11.90;;;;;;;0.67;100.00;94125.50;1037237;28;20010;-75
2020/12/07 00:42:35;;;;;;;21.20;11.93;;;;;;;0.63;100.00;94123.38;1036576;28;20053;-74
2020/12/07 00:43:06;;;;;;;24.15;12.77;;;;;;;0.58;100.00;94121.25;1028695;28;20018;-74
2020/12/07 00:43:37;;;;;;;23.70;12.68;;;;;;;0.64;100.00;94127.63;1045320;28;20104;-74
2020/12/07 00:44:08;;;;;;;21.58;12.45;;;;;;;0.58;100.00;94125.69;1032993;28;20391;-75
2020/12/07 00:44:40;;;;;;;22.55;12.90;;;;;;;0.65;100.00;94121.44;1036941;28;20009;-74
2020/12/07 00:45:11;;;;;;;22.50;12.90;;;;;;;0.52;100.00;94099.22;1036702;28;20030;-74
2020/12/07 00:45:41;;;;;;;25.13;12.93;;;;;;;0.62;100.00;94122.56;1033134;28;20018;-74
2020/12/07 00:46:13;;;;;;;22.98;12.68;;;;;;;0.64;100.00;94120.59;1037086;28;20041;-75
2020/12/07 00:46:44;;;;;;;22.83;12.98;;;;;;;0.59;100.00;94125.50;1032956;28;20018;-74
2020/12/07 00:47:14;;;;;;;21.27;12.27;;;;;;;0.56;100.00;94108.34;1028785;28;20015;-74
2020/12/07 00:47:45;;;;;;;24.25;12.07;;;;;;;0.54;100.00;94105.09;1037214;28;20022;-74
2020/12/07 00:48:16;;;;;;;26.17;12.98;;;;;;;0.62;100.00;94121.75;1036886;28;20405;-75
2020/12/07 00:48:47;;;;;;;23.73;12.30;;;;;;;0.64;100.00;94127.63;1036875;28;20386;-74
2020/12/07 00:49:18;;;;;;;19.80;12.02;;;;;;;0.68;100.00;94123.72;1036972;28;20105;-74
2020/12/07 00:49:49;;;;;;;24.02;12.95;;;;;;;0.61;100.00;94131.41;1028639;28;20472;-74
2020/12/07 00:50:20;;;;;;;24.95;12.82;;;;;;;0.62;100.00;94132.19;1036783;28;20014;-75
2020/12/07 00:50:51;;;;;;;23.30;12.63;;;;;;;0.58;100.00;94123.06;1032816;28;20017;-74
2020/12/07 00:51:21;;;;;;;21.60;11.65;;;;;;;0.55;100.00;94129.41;1032853;28;20454;-75
2020/12/07 00:51:52;;;;;;;22.17;11.63;;;;;;;0.52;100.00;94116.66;1025035;28;20019;-74
2020/12/07 00:52:23;;;;;;;23.33;12.88;;;;;;;0.63;100.00;94136.44;1032852;28;20109;-75
2020/12/07 00:52:54;;;;;;;21.42;12.73;;;;;;;0.67;100.00;94143.00;1024630;28;20487;-74
2020/12/07 00:53:25;;;;;;;20.50;11.27;;;;;;;0.66;100.00;94147.41;1037080;28;20006;-75
2020/12/07 00:53:56;;;;;;;18.65;11.38;;;;;;;0.66;100.00;94142.19;1033042;28;20011;-74
2020/12/07 00:54:26;;;;;;;22.80;12.00;;;;;;;0.68;100.00;94147.22;1032860;28;20015;-75
2020/12/07 00:54:57;;;;;;;21.63;11.65;;;;;;;0.72;100.00;94149.34;1032945;28;20015;-74
2020/12/07 00:55:28;;;;;;;21.08;12.05;;;;;;;0.73;100.00;94150.16;1032774;28;20182;-75
2020/12/07 00:55:59;;;;;;;20.58;11.65;;;;;;;0.73;100.00;94152.78;1045049;28;20051;-75
2020/12/07 00:56:30;;;;;;;22.30;11.80;;;;;;;0.72;100.00;94153.78;1049051;28;20013;-75
2020/12/07 00:57:01;;;;;;;19.77;11.80;;;;;;;0.74;100.00;94155.25;1036659;28;20009;-75
2020/12/07 00:57:32;;;;;;;21.98;12.18;;;;;;;0.65;100.00;94139.72;1037124;28;20021;-74
2020/12/07 00:58:03;;;;;;;20.25;11.35;;;;;;;0.78;100.00;94165.38;1028894;28;20133;-75
2020/12/07 00:58:34;;;;;;;21.38;11.65;;;;;;;0.72;100.00;94156.38;1036907;28;20010;-74
2020/12/07 00:59:05;;;;;;;22.38;12.70;;;;;;;0.74;100.00;94159.66;1036754;28;20021;-74
2020/12/07 00:59:36;;;;;;;20.52;11.20;;;;;;;0.77;100.00;94171.56;1032775;28;20361;-75
2020/12/07 01:00:07;;;;;;;25.60;12.90;;;;;;;0.78;100.00;94167.97;1040756;28;20462;-75
2020/12/07 01:00:38;;;;;;;20.70;11.80;;;;;;;0.74;100.00;94168.28;1028567;28;20025;-75
2020/12/07 01:01:08;;;;;;;22.75;12.23;;;;;;;0.77;100.00;94175.00;1032427;28;20026;-75
2020/12/07 01:01:39;;;;;;;23.70;12.68;;;;;;;0.80;100.00;94182.53;1036812;28;20100;-75
2020/12/07 01:02:10;;;;;;;22.08;12.45;;;;;;;0.83;100.00;94191.84;1036757;28;20020;-75
2020/12/07 01:02:41;;;;;;;21.13;12.25;;;;;;;0.74;100.00;94183.97;1040738;28;20018;-74
2020/12/07 01:03:12;;;;;;;22.25;11.85;;;;;;;0.75;100.00;94200.47;1032511;28;20022;-74
2020/12/07 01:03:43;;;;;;;23.17;13.30;;;;;;;0.76;100.00;94212.56;1028805;28;20019;-75
2020/12/07 01:04:14;;;;;;;22.08;12.15;;;;;;;0.72;100.00;94222.50;1028728;28;20485;-75
2020/12/07 01:04:45;;;;;;;25.73;13.45;;;;;;;0.66;100.00;94217.09;1032571;28;20029;-75
2020/12/07 01:05:16;;;;;;;22.80;12.85;;;;;;;0.52;100.00;94201.06;1036622;28;20391;-74
2020/12/07 01:05:47;;;;;;;22.33;12.50;;;;;;;0.75;100.00;94239.66;1036834;28;20033;-75
2020/12/07 01:06:18;;;;;;;26.25;14.18;;;;;;;0.71;100.00;94241.75;1044812;28;20028;-75
2020/12/07 01:06:49;;;;;;;23.27;12.52;;;;;;;0.73;100.00;94239.00;1032303;28;20124;-74
2020/12/07 01:07:19;;;;;;;23.42;12.30;;;;;;;0.74;100.00;94227.56;1032692;28;20469;-75
2020/12/07 01:07:50;;;;;;;21.65;11.70;;;;;;;0.74;100.00;94238.03;1028612;28;20105;-74
2020/12/07 01:08:22;;;;;;;25.38;13.27;;;;;;;0.83;100.00;94254.53;1028800;28;20054;-75
2020/12/07 01:08:53;;;;;;;22.58;12.60;;;;;;;0.84;100.00;94245.75;1032570;28;20065;-74
2020/12/07 01:09:24;;;;;;;21.98;12.18;;;;;;;0.87;100.00;94248.00;1040854;28;20071;-75
2020/12/07 01:09:54;;;;;;;22.13;13.10;;;;;;;0.86;100.00;94249.81;1032625;28;20081;-74
2020/12/07 01:10:25;;;;;;;23.20;12.05;;;;;;;0.86;100.00;94249.81;1032705;28;20148;-75
2020/12/07 01:10:56;;;;;;;19.95;11.32;;;;;;;0.90;100.00;94255.53;1044582;28;20050;-74
2020/12/07 01:11:27;;;;;;;22.42;12.35;;;;;;;0.88;100.00;94249.66;1035971;28;20029;-74
2020/12/07 01:11:59;;;;;;;24.45;13.18;;;;;;;0.91;100.00;94251.97;1032251;28;20109;-75
2020/12/07 01:12:29;;;;;;;22.17;12.60;;;;;;;0.98;100.00;94262.59;1036555;28;20079;-75
2020/12/07 01:13:00;;;;;;;23.02;12.60;;;;;;;0.84;100.00;94254.38;1032199;28;20022;-75
2020/12/07 01:13:31;;;;;;;23.30;12.90;;;;;;;0.96;100.00;94267.16;1036605;28;20120;-75
2020/12/07 01:14:02;;;;;;;21.00;11.82;;;;;;;0.83;100.00;94257.16;1040698;28;20474;-74
2020/12/07 01:14:33;;;;;;;23.98;13.05;;;;;;;0.98;100.00;94275.66;1040583;28;20027;-75
2020/12/07 01:15:04;;;;;;;22.52;12.10;;;;;;;0.91;100.00;94267.63;1038450;28;20064;-75
2020/12/07 01:15:34;;;;;;;21.17;12.13;;;;;;;0.90;100.00;94272.03;1044753;28;20124;-75
2020/12/07 01:16:05;;;;;;;22.08;12.80;;;;;;;0.97;100.00;94281.88;1044905;28;20045;-75
2020/12/07 01:16:36;;;;;;;20.17;11.93;;;;;;;1.01;100.00;94281.41;1040752;28;20108;-74
2020/12/07 01:17:07;;;;;;;21.17;12.05;;;;;;;0.92;100.00;94283.16;1044957;28;20477;-75
2020/12/07 01:17:38;;;;;;;20.80;12.48;;;;;;;0.87;100.00;94282.81;1032485;28;20093;-75
2020/12/07 01:18:09;;;;;;;21.52;12.60;;;;;;;0.87;100.00;94279.38;1049116;28;20071;-75
2020/12/07 01:18:40;;;;;;;22.63;12.68;;;;;;;0.86;100.00;94278.56;1036686;28;20502;-75
2020/12/07 01:19:11;;;;;;;22.00;12.25;;;;;;;0.91;100.00;94283.31;1040802;28;20021;-75
2020/12/07 01:19:42;;;;;;;21.80;12.70;;;;;;;0.89;100.00;94277.44;1036783;28;20025;-74
2020/12/07 01:20:12;;;;;;;23.88;12.88;;;;;;;0.83;100.00;94278.06;1040804;28;20017;-75
2020/12/07 01:20:43;;;;;;;24.73;13.40;;;;;;;0.86;100.00;94273.34;1028489;28;20109;-74
2020/12/07 01:21:14;;;;;;;21.25;12.45;;;;;;;0.91;100.00;94278.09;1036736;28;20038;-75
2020/12/07 01:21:45;;;;;;;24.55;13.80;;;;;;;0.91;100.00;94270.25;1044794;28;20031;-75
2020/12/07 01:22:16;;;;;;;20.73;12.05;;;;;;;0.92;100.00;94270.09;1032721;28;20018;-75
2020/12/07 01:22:46;;;;;;;22.85;13.48;;;;;;;0.84;100.00;94267.44;1036424;28;20025;-75
2020/12/07 01:23:17;;;;;;;22.92;12.48;;;;;;;0.85;100.00;94268.25;1036571;28;20034;-75
2020/12/07 01:23:48;;;;;;;20.83;12.25;;;;;;;0.80;100.00;94258.31;1044894;28;20021;-75
2020/12/07 01:24:19;;;;;;;19.52;12.40;;;;;;;0.79;100.00;94263.69;1032598;28;20088;-75
2020/12/07 01:24:50;;;;;;;22.10;12.50;;;;;;;0.81;100.00;94252.09;1036716;28;20029;-74
2020/12/07 01:25:20;;;;;;;21.67;12.95;;;;;;;0.82;100.00;94255.50;1037019;28;20498;-75
2020/12/07 01:25:51;;;;;;;19.60;11.90;;;;;;;0.77;100.00;94242.94;1045096;28;20406;-75
2020/12/07 01:26:22;;;;;;;22.13;12.50;;;;;;;0.85;100.00;94253.41;1037000;28;20045;-74
2020/12/07 01:26:53;;;;;;;20.17;12.05;;;;;;;0.79;100.00;94240.97;1032587;28;20088;-74
2020/12/07 01:27:23;;;;;;;21.33;12.30;;;;;;;0.84;100.00;94245.75;1044962;28;20108;-75
2020/12/07 01:27:54;;;;;;;19.67;11.40;;;;;;;0.80;100.00;94237.41;1045250;28;20021;-75
2020/12/07 01:28:25;;;;;;;20.27;11.85;;;;;;;0.85;100.00;94244.75;1036181;28;20113;-75
2020/12/07 01:28:57;;;;;;;19.73;11.73;;;;;;;0.88;100.00;94245.25;1032156;28;20479;-74
2020/12/07 01:29:28;;;;;;;19.77;11.85;;;;;;;0.81;100.00;94239.03;1040634;28;20017;-75
2020/12/07 01:30:01;;;;;;;20.17;11.73;;;;;;;0.77;100.00;94227.25;1032785;28;20023;-75
2020/12/07 01:30:32;;;;;;;18.70;11.38;;;;;;;0.72;100.00;94213.84;1036501;28;20034;-75
2020/12/07 01:31:03;;;;;;;20.48;12.00;;;;;;;0.81;100.00;94225.16;1024290;28;20414;-74
2020/12/07 01:31:34;;;;;;;19.35;11.93;;;;;;;0.79;100.00;94219.28;1040790;28;20144;-75
2020/12/07 01:32:05;;;;;;;20.30;12.60;;;;;;;0.79;100.00;94214.03;1040436;28;20124;-75
2020/12/07 01:32:35;;;;;;;21.60;12.20;;;;;;;0.71;100.00;94201.75;1036592;28;20049;-75
2020/12/07 01:33:06;;;;;;;20.42;12.30;;;;;;;0.78;100.00;94215.81;1036498;28;20018;-74
2020/12/07 01:33:37;;;;;;;21.70;12.32;;;;;;;0.72;100.00;94206.84;1036603;28;20033;-75
2020/12/07 01:34:08;;;;;;;22.10;12.75;;;;;;;0.66;100.00;94188.34;1040873;28;20029;-75
2020/12/07 01:34:39;;;;;;;19.77;11.65;;;;;;;0.75;100.00;94196.06;1036450;28;20049;-74
2020/12/07 01:35:10;;;;;;;21.40;12.25;;;;;;;0.73;100.00;94191.97;1040856;28;20120;-74
2020/12/07 01:35:42;;;;;;;18.60;11.50;;;;;;;0.76;100.00;94204.72;1036526;28;20129;-74
2020/12/07 01:36:13;;;;;;;20.00;11.88;;;;;;;0.71;100.00;94197.34;1044989;28;20021;-75
2020/12/07 01:36:44;;;;;;;19.58;11.95;;;;;;;0.75;100.00;94195.25;1036349;28;20018;-74
2020/12/07 01:37:15;;;;;;;20.30;11.30;;;;;;;0.67;100.00;94190.81;1032392;28;20140;-74
2020/12/07 01:37:46;;;;;;;19.48;11.95;;;;;;;0.73;100.00;94192.81;1044542;28;20096;-75
2020/12/07 01:38:16;;;;;;;18.98;11.32;;;;;;;0.75;100.00;94195.25;1032663;28;20029;-75
2020/12/07 01:38:47;;;;;;;24.20;12.80;;;;;;;0.72;100.00;94191.16;1048899;28;20016;-74
2020/12/07 01:39:18;;;;;;;19.98;11.45;;;;;;;0.74;100.00;94193.63;1044717;28;20029;-74
2020/12/07 01:39:48;;;;;;;19.05;11.70;;;;;;;0.77;100.00;94193.31;1036551;28;20030;-75
2020/12/07 01:40:19;;;;;;;21.13;11.90;;;;;;;0.74;100.00;94194.41;1040570;28;20040;-75
2020/12/07 01:40:50;;;;;;;20.45;12.73;;;;;;;0.69;100.00;94180.22;1036286;28;20033;-74
2020/12/07 01:41:21;;;;;;;23.40;12.82;;;;;;;0.77;100.00;94203.75;1040436;28;20508;-75
2020/12/07 01:41:52;;;;;;;20.38;12.40;;;;;;;0.76;100.00;94202.09;1032545;28;20054;-75
2020/12/07 01:42:22;;;;;;;20.33;12.43;;;;;;;0.73;100.00;94199.81;1040713;28;20056;-75
2020/12/07 01:42:53;;;;;;;20.25;12.45;;;;;;;0.75;100.00;94209.13;1040525;28;20428;-74
2020/12/07 01:43:24;;;;;;;21.92;12.77;;;;;;;0.81;100.00;94215.50;1040645;28;20041;-75
2020/12/07 01:43:55;;;;;;;21.42;11.68;;;;;;;0.78;100.00;94221.03;1040445;28;20021;-75
2020/12/07 01:44:25;;;;;;;19.65;12.05;;;;;;;0.79;100.00;94219.28;1040548;28;20021;-75
2020/12/07 01:44:56;;;;;;;20.73;11.68;;;;;;;0.71;100.00;94220.03;1044306;28;20491;-75
2020/12/07 01:45:27;;;;;;;20.00;11.30;;;;;;;0.68;100.00;94220.34;1036331;28;20113;-76
2020/12/07 01:45:59;;;;;;;19.83;11.70;;;;;;;0.73;100.00;94234.59;1040743;28;20448;-75
2020/12/07 01:46:30;;;;;;;18.27;11.45;;;;;;;0.79;100.00;94234.94;1036330;28;20017;-75
2020/12/07 01:47:01;;;;;;;21.20;12.13;;;;;;;0.73;100.00;94239.00;1032080;28;20449;-74
2020/12/07 01:47:31;;;;;;;19.38;11.45;;;;;;;0.78;100.00;94241.13;1040475;28;20517;-75
2020/12/07 01:48:02;;;;;;;21.38;12.40;;;;;;;0.74;100.00;94240.63;1040394;28;20489;-74
2020/12/07 01:48:33;;;;;;;22.77;12.48;;;;;;;0.80;100.00;94244.41;1040428;28;20097;-75
2020/12/07 01:49:04;;;;;;;19.08;11.57;;;;;;;0.72;100.00;94226.91;1048419;28;20024;-74
2020/12/07 01:49:35;;;;;;;20.63;12.02;;;;;;;0.77;100.00;94245.56;1048609;28;20024;-75
2020/12/07 01:50:06;;;;;;;20.67;12.20;;;;;;;0.73;100.00;94249.44;1040307;28;20395;-75
2020/12/07 01:50:37;;;;;;;22.30;12.50;;;;;;;0.69;100.00;94238.50;1036122;28;20018;-75
2020/12/07 01:51:08;;;;;;;22.95;12.52;;;;;;;0.72;100.00;94247.81;1036011;28;20104;-75
2020/12/07 01:51:39;;;;;;;19.67;11.65;;;;;;;0.71;100.00;94254.81;1040859;28;20079;-75
2020/12/07 01:52:10;;;;;;;21.35;11.93;;;;;;;0.74;100.00;94259.72;1032439;28;20517;-75
2020/12/07 01:52:40;;;;;;;21.30;12.13;;;;;;;0.77;100.00;94261.22;1036622;28;20112;-74
2020/12/07 01:53:12;;;;;;;20.58;12.27;;;;;;;0.78;100.00;94265.47;1048891;28;20038;-74
2020/12/07 01:53:43;;;;;;;20.52;12.10;;;;;;;0.82;100.00;94271.19;1028593;28;20030;-75
2020/12/07 01:54:14;;;;;;;22.45;13.20;;;;;;;0.79;100.00;94269.72;1044792;28;20021;-75
2020/12/07 01:54:46;;;;;;;20.42;12.07;;;;;;;0.73;100.00;94267.72;1036626;28;20033;-74
2020/12/07 01:55:17;;;;;;;21.33;11.88;;;;;;;0.69;100.00;94263.81;1028387;28;20022;-75
2020/12/07 01:55:48;;;;;;;21.10;12.20;;;;;;;0.65;100.00;94257.25;1040486;28;20476;-75
2020/12/07 01:56:29;;;;;;;21.55;12.43;;;;;;;0.77;100.00;94271.69;1036534;28;20026;-75
2020/12/07 01:57:00;;;;;;;20.75;12.75;;;;;;;0.82;100.00;94273.78;1044482;28;20473;-74
2020/12/07 01:57:32;;;;;;;20.08;11.75;;;;;;;0.85;100.00;94279.53;1044590;28;20021;-75
2020/12/07 01:58:03;;;;;;;18.85;10.98;;;;;;;0.85;100.00;94274.28;1040433;28;20144;-75
2020/12/07 01:58:33;;;;;;;20.20;11.43;;;;;;;0.88;100.00;94281.81;1044520;28;20455;-75
2020/12/07 01:59:05;;;;;;;18.17;11.43;;;;;;;0.90;100.00;94281.66;1044554;28;20211;-74
2020/12/07 01:59:38;;;;;;;18.25;11.48;;;;;;;0.84;100.00;94280.50;1036453;28;20136;-75
2020/12/07 02:00:09;;;;;;;19.08;11.68;;;;;;;0.79;100.00;94279.38;1044735;28;20017;-75
2020/12/07 02:00:40;;;;;;;20.00;11.68;;;;;;;0.77;100.00;94283.91;1048797;28;20416;-74
2020/12/07 02:01:11;;;;;;;20.88;12.10;;;;;;;0.78;100.00;94283.75;1040357;28;20036;-74
2020/12/07 02:01:42;;;;;;;20.38;11.38;;;;;;;0.73;100.00;94279.00;1040651;28;20044;-74
2020/12/07 02:02:13;;;;;;;20.30;12.00;;;;;;;0.78;100.00;94278.53;1032275;28;20084;-75
2020/12/07 02:02:43;;;;;;;19.63;11.73;;;;;;;0.74;100.00;94279.81;1036134;28;20014;-74
2020/12/07 02:03:15;;;;;;;21.35;11.88;;;;;;;0.75;100.00;94279.66;1040597;28;20029;-75
2020/12/07 02:03:45;;;;;;;20.30;11.80;;;;;;;0.76;100.00;94283.09;1048966;28;20017;-75
2020/12/07 02:04:16;;;;;;;21.13;12.23;;;;;;;0.73;100.00;94291.22;1040429;28;20442;-75
2020/12/07 02:04:47;;;;;;;18.50;11.65;;;;;;;0.72;100.00;94287.00;1036240;28;20085;-75
2020/12/07 02:05:18;;;;;;;18.45;11.35;;;;;;;0.69;100.00;94287.31;1040290;28;20573;-74
2020/12/07 02:05:49;;;;;;;19.75;11.73;;;;;;;0.68;100.00;94285.66;1032413;28;20018;-74
2020/12/07 02:06:20;;;;;;;19.70;11.63;;;;;;;0.64;100.00;94282.53;1036299;28;20021;-75
2020/12/07 02:06:51;;;;;;;19.77;11.60;;;;;;;0.71;100.00;94283.56;1036492;28;20101;-74
2020/12/07 02:07:22;;;;;;;19.50;11.63;;;;;;;0.74;100.00;94290.28;1043615;28;20089;-74
2020/12/07 02:08:08;;;;;;;20.83;12.02;;;;;;;0.73;100.00;94279.00;1035058;28;20040;-74
2020/12/07 02:08:39;;;;;;;18.92;11.85;;;;;;;0.81;100.00;94285.25;1032722;28;20030;-74
2020/12/07 02:09:10;;;;;;;19.40;11.73;;;;;;;0.79;100.00;94285.41;1040791;28;20021;-74
2020/12/07 02:09:41;;;;;;;20.90;12.27;;;;;;;0.73;100.00;94291.22;1028717;28;20023;-75
2020/12/07 02:10:12;;;;;;;20.70;12.23;;;;;;;0.71;100.00;94283.56;1040904;28;20549;-75
2020/12/07 02:10:43;;;;;;;20.73;11.70;;;;;;;0.80;100.00;94283.59;1040465;28;20021;-74
2020/12/07 02:11:14;;;;;;;21.83;12.20;;;;;;;0.72;100.00;94279.16;1028269;28;20090;-74
2020/12/07 02:11:45;;;;;;;18.65;11.48;;;;;;;0.73;100.00;94278.16;1036342;28;20073;-74
2020/12/07 02:12:16;;;;;;;18.92;11.73;;;;;;;0.75;100.00;94279.66;1044975;28;20118;-75
2020/12/07 02:12:47;;;;;;;19.85;11.18;;;;;;;0.69;100.00;94266.41;1032572;28;20138;-74
2020/12/07 02:13:18;;;;;;;18.05;10.55;;;;;;;0.68;100.00;94275.22;1040806;28;20056;-74
2020/12/07 02:13:49;;;;;;;20.83;12.68;;;;;;;0.71;100.00;94272.28;1032580;28;20018;-75
2020/12/07 02:14:21;;;;;;;21.25;11.93;;;;;;;0.66;100.00;94264.09;1032727;28;20022;-75
2020/12/07 02:14:51;;;;;;;20.25;11.45;;;;;;;0.62;100.00;94268.81;1032720;28;20293;-76
2020/12/07 02:15:22;;;;;;;19.23;10.98;;;;;;;0.66;100.00;94266.72;1036660;28;20505;-75
2020/12/07 02:15:53;;;;;;;17.50;10.43;;;;;;;0.66;100.00;94264.09;1040920;28;20041;-75
2020/12/07 02:16:24;;;;;;;18.77;11.02;;;;;;;0.65;100.00;94263.31;1036772;28;20025;-74
2020/12/07 02:16:55;;;;;;;19.15;11.15;;;;;;;0.67;100.00;94260.53;1040493;28;20025;-74
2020/12/07 02:17:26;;;;;;;20.73;12.25;;;;;;;0.65;100.00;94265.09;1032729;28;20018;-75
2020/12/07 02:17:57;;;;;;;19.60;11.63;;;;;;;0.69;100.00;94259.38;1044827;28;20082;-75
2020/12/07 02:18:28;;;;;;;19.48;11.20;;;;;;;0.67;100.00;94266.56;1032453;28;20025;-75
2020/12/07 02:18:59;;;;;;;19.25;11.00;;;;;;;0.66;100.00;94258.88;1040644;28;20021;-75
2020/12/07 02:19:30;;;;;;;20.05;11.50;;;;;;;0.70;100.00;94260.22;1036816;28;20388;-74
2020/12/07 02:20:02;;;;;;;16.95;10.52;;;;;;;0.69;100.00;94254.16;1040993;28;20142;-75
2020/12/07 02:20:34;;;;;;;17.45;10.10;;;;;;;0.63;100.00;94254.81;1036773;28;20018;-74
2020/12/07 02:21:04;;;;;;;17.65;11.32;;;;;;;0.64;100.00;94258.22;1040482;28;20021;-75
2020/12/07 02:21:36;;;;;;;17.92;11.02;;;;;;;0.61;100.00;94255.91;1044972;28;20013;-75
2020/12/07 02:22:07;;;;;;;17.10;10.57;;;;;;;0.60;100.00;94264.75;1032978;28;20118;-75
2020/12/07 02:22:38;;;;;;;16.25;10.25;;;;;;;0.61;100.00;94255.91;1036377;28;20113;-73
2020/12/07 02:23:09;;;;;;;17.80;10.50;;;;;;;0.62;100.00;94257.56;1041459;28;20025;-72